Bluff Springs, Texas
Current Conditions -  °F | °C
As of 5:53 AM on Friday 31 Oct 2014 (Local Time) from KAUS Reporting Station
Clear Clear  
Wind Chill: 60°   Ceiling: Unl
Heat Index: 60°   Visibility: 10mi
Dew Point: 59°   Wind: 0mph
Humidity: 96%   Direction: NA
Pressure: 30.18"   Gusts: NA
Location:  30.1791°N, 97.7294°W
Report Text: KAUS 311053Z 00000KT 10SM CLR 16/15 A3018 RMK AO2 SLP213 T01560150
Loading
Personal Weather Stations






























Interactive Weather Map
Tropical Storm Tracking
New forecast layout! Learn more

10-Day Weather Forecast

Advertisements
Track Severe Weather on mobile